Pagrindinis puslapis
METAR-TAF:

METAR-TAF

Oro uostai :

Lar, Iranas

platuma: 27-40-26N, ilguma: 054-22-53E, Aukštis: 792 m

Dabartinis oras

Ataskaita buvo paskelbta 1 valandą ir 13 minutes, ne 21:00 UTC
Ramus vėjas
Temperatūra 25°C
Drėgmė 32%
Slėgis 1006 hPa
Matomumas 10 km arba daugiau
nėra debesų žemiau 1500 m ir nėra kamuolinių lietaus debesų

METAR: OISL 242100Z 00000KT CAVOK 25/07 Q1006

Laikas: 01:43 (22:13 UTC)

Prognozė

Ataskaita buvo paskelbta 4 valandos ir 43 minutes, ne 17:30 UTC
Prognozė galioja nuo 24 metu 18 UTC su 25 metu 24 UTC
Vėjas 6 kt iš Pietų/Pietvakarių
Matomumas 10 km arba daugiau
nėra debesų žemiau 1500 m ir nėra kamuolinių lietaus debesų

TAF: OISL 241730Z 2418/2524 20006KT CAVOK

Orai ataskaitas ir orų prognozės (METAR, TAF).

turimą stotys yra geltonos ir raudonos taškus žemėlapyje.

Perkelti pele per norėdami pamatyti stoties vardą.

Tada spustelėkite, norėdami matyti oro stebėjimo ir prognozės.

Norėdami pakeisti žemėlapį: spustelėkite ant žalios mygtukų su juodo kryžiaus žemyn,; žalią mygtuką su brūkšneliu, jei norite nutolinti; arba žalių rodyklių gretimoms žemėlapius.


METAR-TAF: